Monday, April 23, 2018, 1:40 AM GMT
Back to Local

CYYG, Charlottetown, P. E. I.

Location: , , Canada Lat: 46.283
Local Time: 1:40 AM GMT ( 1:40 GMT) Lon: -63.133
Time Zone: GMT Elev: 157 ft

Show me the last for .
Show Decoded

2018-04-23 01:00 METAR CYYG 230100Z 22005KT 15SM SKC 02/M06 A3022 RMK SLP238 =
2018-04-23 00:00 METAR CYYG 230000Z 14003KT 15SM FEW220 02/M08 A3021 RMK CI1 CI TR SLP233 =
2018-04-22 23:28 METAR CYYG 222328Z 00000KT 15SM FEW220 02/M08 A3020 RMK CI1 CI TR SLP230 =
2018-04-22 23:00 METAR CYYG 222300Z 30002KT 15SM SKC 04/M08 A3020 RMK SLP230 =
2018-04-22 22:00 METAR CYYG 222200Z 34005KT 300V360 15SM FEW260 06/M09 A3020 RMK CI1 SLP229 =
2018-04-22 21:00 METAR CYYG 222100Z 34008KT 310V010 15SM FEW260 06/M08 A3019 RMK CI1 CI TR SLP227
                 =
2018-04-22 20:00 METAR CYYG 222000Z 32009G15KT 15SM FEW048 SCT260 05/M08 A3019 RMK CU1CI3 CU TR
                 SLP226 =
2018-04-22 19:00 METAR CYYG 221900Z 35009KT 320V020 15SM FEW020 FEW260 05/M07 A3019 RMK CF1CI1 CF
                 TR SLP226 =
2018-04-22 18:00 METAR CYYG 221800Z 01009KT 320V030 15SM FEW260 06/M05 A3017 RMK CI1 SLP221 =
2018-04-22 17:00 METAR CYYG 221700Z 34009G15KT 310V020 15SM FEW018 FEW260 06/M03 A3017 RMK CF1CI1
                 CF TR SLP219 =
2018-04-22 16:00 METAR CYYG 221600Z 32012KT 300V360 15SM FEW015 FEW260 06/M04 A3016 RMK CF1CI1 CF
                 TR CI TR SLP216 =
2018-04-22 15:00 METAR CYYG 221500Z 32009G16KT 300V010 15SM FEW040 FEW070 SCT260 06/M04 A3015 RMK
                 CU1AC1CI3 CU TR AC TR SLP212 =
2018-04-22 14:00 METAR CYYG 221400Z 33011KT 15SM FEW260 05/M06 A3015 RMK CI1 SLP212 =
2018-04-22 13:00 METAR CYYG 221300Z 33009KT 15SM FEW260 05/M06 A3014 RMK CI1 SLP208 =
2018-04-22 12:00 METAR CYYG 221200Z 33008KT 15SM FEW260 04/M05 A3013 RMK CI1 SLP205 =
2018-04-22 11:00 METAR CYYG 221100Z 31005KT 15SM FEW085 FEW260 02/M04 A3011 RMK AC1CI1 AC TR CI
                 TR SLP201 =
2018-04-22 10:00 METAR CYYG 221000Z 28004KT 15SM FEW080 FEW180 SCT250 M00/M04 A3011 RMK AC1AC2CI2
                 AC TR SLP198 =
2018-04-22 09:00 METAR CYYG 220900Z 30002KT 15SM FEW055 SCT080 SCT250 M01/M05 A3009 RMK SC1AC2CI1
                 SLP194 =
2018-04-22 08:00 METAR CYYG 220800Z 27002KT 15SM FEW055 SCT070 M01/M05 A3009 RMK SC2AC2 SLP192 =
2018-04-22 07:00 METAR CYYG 220700Z 25005KT 15SM SCT054 BKN070 00/M05 A3009 RMK SC3AC4 SLP192 =
2018-04-22 06:00 METAR CYYG 220600Z 25006KT 15SM SCT054 OVC066 01/M04 A3009 RMK SC3AC5 SLP193 =
2018-04-22 05:00 METAR CYYG 220500Z 23006KT 15SM SCT054 OVC070 01/M04 A3009 RMK SC3AC5 SLP194 =
2018-04-22 04:00 METAR CYYG 220400Z 23006KT 15SM SCT055 BKN060 OVC110 01/M04 A3010 RMK SC3SC3AC2
                 SLP195 =
2018-04-22 03:00 METAR CYYG 220300Z 24002KT 15SM BKN070 OVC110 00/M05 A3010 RMK AC6AC2 SLP197 =
2018-04-22 02:00 METAR CYYG 220200Z 25004KT 15SM BKN060 BKN100 OVC240 01/M05 A3010 RMK SC5AC2CI1
                 SLP196 =

Support USWX by starting your Amazon purchase here.